KSDF/SDF METAR and TAF weather

Enter ICAO airport designator
Station Type Date Time Source
KSDF METAR 2020/04/10 18:56 UTC NOAA

KSDF 101856Z 29008G17KT 10SM FEW060 12/M04 A3007 RMK AO2 SLP183 T01171039


Station Type Date Time Source
KSDF Decoded METAR 2020/04/10 18:56 UTC NOAA

STANDIFORD FIELD, KY, United States (KSDF) 38-11N 085-44W 146M
Apr 10, 2020 - 02:56 PM EDT / 2020.04.10 1856 UTC
Wind: from the WNW (290 degrees) at 9 MPH (8 KT) gusting to 20 MPH (17 KT):0
Visibility: 10 mile(s):0
Sky conditions: mostly clear
Temperature: 53.1 F (11.7 C)
Dew Point: 25.0 F (-3.9 C)
Relative Humidity: 33%
Pressure (altimeter): 30.07 in. Hg (1018 hPa)
ob: KSDF 101856Z 29008G17KT 10SM FEW060 12/M04 A3007 RMK AO2 SLP183 T01171039
cycle: 19

Station Type Date Time Source
KSDF TAF 2020/04/10 18:22 UTC NOAA

TAF KSDF 101720Z 1018/1124 30011G17KT P6SM SKC
FM110100 24005KT P6SM SKC
FM111500 19011KT P6SM BKN250

Example: see airport list